createdAt,value
2019-05-30T00:00:07.721Z,1.40
2019-05-30T00:02:27.098Z,1.37
2019-05-30T00:04:58.193Z,1.42
2019-05-30T00:07:28.869Z,1.60
2019-05-30T00:10:00.471Z,2.15
2019-05-30T00:12:31.247Z,2.05
2019-05-30T00:15:04.957Z,2.15
2019-05-30T00:17:35.248Z,2.05
2019-05-30T00:20:06.585Z,2.17
2019-05-30T00:22:37.187Z,1.95
2019-05-30T00:25:08.151Z,2.00
2019-05-30T00:27:38.824Z,1.95
2019-05-30T00:30:24.035Z,2.00
2019-05-30T00:32:43.432Z,1.87
2019-05-30T00:35:14.098Z,1.85
2019-05-30T00:37:44.733Z,1.65
2019-05-30T00:40:15.318Z,1.90
2019-05-30T00:42:46.015Z,1.60
2019-05-30T00:45:20.871Z,2.05
2019-05-30T00:48:02.249Z,1.95
2019-05-30T00:50:33.473Z,2.40
2019-05-30T00:53:05.340Z,2.50
2019-05-30T00:55:37.013Z,2.80
2019-05-30T00:58:08.157Z,2.67
2019-05-30T01:00:43.794Z,2.55
2019-05-30T01:03:11.687Z,2.20
2019-05-30T01:05:42.305Z,2.45
2019-05-30T01:08:12.945Z,2.42
2019-05-30T01:10:43.576Z,2.50
2019-05-30T01:13:14.314Z,2.37
2019-05-30T01:15:44.860Z,2.60
2019-05-30T01:18:15.444Z,2.37
2019-05-30T01:20:46.608Z,2.58
2019-05-30T01:23:17.568Z,2.42
2019-05-30T01:25:48.509Z,2.60
2019-05-30T01:28:19.444Z,2.33
2019-05-30T01:30:59.595Z,2.30
2019-05-30T01:33:22.949Z,2.47
2019-05-30T01:35:53.973Z,2.55
2019-05-30T01:38:24.709Z,2.12
2019-05-30T01:40:55.345Z,2.30
2019-05-30T01:43:26.255Z,2.30
2019-05-30T01:45:58.045Z,2.10
2019-05-30T01:48:28.847Z,2.30
2019-05-30T01:51:00.294Z,1.80
2019-05-30T01:53:31.310Z,1.87
2019-05-30T01:56:02.757Z,2.25
2019-05-30T01:58:33.368Z,2.40
2019-05-30T02:01:19.100Z,1.70
2019-05-30T02:03:36.478Z,1.80
2019-05-30T02:06:07.361Z,2.02
2019-05-30T02:08:38.058Z,1.80
2019-05-30T02:11:10.732Z,1.70
2019-05-30T02:13:41.397Z,1.98
2019-05-30T02:16:11.907Z,1.60
2019-05-30T02:18:42.527Z,1.70
2019-05-30T02:21:13.682Z,1.90
2019-05-30T02:23:44.421Z,2.30
2019-05-30T02:26:15.168Z,1.98
2019-05-30T02:28:45.816Z,2.20
2019-05-30T02:31:37.254Z,2.40
2019-05-30T02:33:48.821Z,2.02
2019-05-30T02:36:19.402Z,1.77
2019-05-30T02:38:49.308Z,1.70
2019-05-30T02:41:19.192Z,1.50
2019-05-30T02:43:49.913Z,1.42
2019-05-30T02:46:19.837Z,1.42
2019-05-30T02:48:59.061Z,1.30
2019-05-30T02:51:25.104Z,1.52
2019-05-30T02:53:55.686Z,1.40
2019-05-30T02:56:26.293Z,1.47
2019-05-30T02:58:56.813Z,1.30
2019-05-30T03:01:27.353Z,1.47
2019-05-30T03:03:57.994Z,1.80
2019-05-30T03:06:28.763Z,1.70
2019-05-30T03:09:01.680Z,1.80
2019-05-30T03:11:34.260Z,1.35
2019-05-30T03:14:07.129Z,1.22
2019-05-30T03:16:37.765Z,1.72
2019-05-30T03:19:08.503Z,1.35
2019-05-30T03:21:39.732Z,1.40
2019-05-30T03:24:12.399Z,1.55
2019-05-30T03:26:42.996Z,1.10
2019-05-30T03:29:14.372Z,1.15
2019-05-30T03:31:45.354Z,1.40
2019-05-30T03:34:25.725Z,1.30
2019-05-30T03:36:48.323Z,1.37
2019-05-30T03:39:19.331Z,1.40
2019-05-30T03:41:53.261Z,6.30
2019-05-30T03:44:24.770Z,5.45
2019-05-30T03:46:58.862Z,5.75
2019-05-30T03:49:32.583Z,4.80
2019-05-30T03:52:08.130Z,4.00
2019-05-30T03:54:39.585Z,3.02
2019-05-30T03:57:19.085Z,3.15
2019-05-30T03:59:52.500Z,2.40
2019-05-30T04:02:25.658Z,3.45
2019-05-30T04:04:58.308Z,2.77
2019-05-30T04:07:30.569Z,15.95
2019-05-30T04:10:02.018Z,2.83
2019-05-30T04:12:45.609Z,4.85
2019-05-30T04:15:21.011Z,3.02
2019-05-30T04:17:53.482Z,3.77
2019-05-30T04:20:23.381Z,2.70
2019-05-30T04:22:53.755Z,3.35
2019-05-30T04:25:24.367Z,3.33
2019-05-30T04:27:55.196Z,3.05
2019-05-30T04:30:26.788Z,5.40
2019-05-30T04:33:16.199Z,9.30
2019-05-30T04:35:30.470Z,9.93
2019-05-30T04:38:01.132Z,9.53
2019-05-30T04:40:31.614Z,9.60
2019-05-30T04:43:02.338Z,8.60
2019-05-30T04:45:32.910Z,9.18
2019-05-30T04:48:02.792Z,9.50
2019-05-30T04:50:33.277Z,8.68
2019-05-30T04:53:03.895Z,8.28
2019-05-30T04:55:34.817Z,8.93
2019-05-30T04:58:04.669Z,8.63
2019-05-30T05:00:35.441Z,8.90
2019-05-30T05:03:05.565Z,9.05
2019-05-30T05:05:35.396Z,8.88
2019-05-30T05:08:05.244Z,9.48
2019-05-30T05:10:35.749Z,5.03
2019-05-30T05:13:05.602Z,6.58
2019-05-30T05:15:36.164Z,6.05
2019-05-30T05:18:06.789Z,5.28
2019-05-30T05:20:37.346Z,3.17
2019-05-30T05:23:07.295Z,3.80
2019-05-30T05:25:37.572Z,3.42
2019-05-30T05:28:08.409Z,2.30
2019-05-30T05:30:38.296Z,2.00
2019-05-30T05:33:08.097Z,2.20
2019-05-30T05:35:38.582Z,2.08
2019-05-30T05:38:08.502Z,1.98
2019-05-30T05:40:38.336Z,1.50
2019-05-30T05:43:08.120Z,1.30
2019-05-30T05:45:37.925Z,1.47
2019-05-30T05:48:07.672Z,2.12
2019-05-30T05:50:38.100Z,1.37
2019-05-30T05:53:07.978Z,1.75
2019-05-30T05:55:37.716Z,1.57
2019-05-30T05:58:07.500Z,1.30
2019-05-30T06:00:37.313Z,1.65
2019-05-30T06:03:07.149Z,1.00
2019-05-30T06:05:51.976Z,1.40
2019-05-30T06:08:08.316Z,1.30
2019-05-30T06:10:38.820Z,1.95
2019-05-30T06:13:09.320Z,1.27
2019-05-30T06:15:39.906Z,0.90
2019-05-30T06:18:10.475Z,1.75
2019-05-30T06:20:40.382Z,1.30
2019-05-30T06:23:10.153Z,1.45
2019-05-30T06:25:40.033Z,1.50
2019-05-30T06:28:09.876Z,1.30
2019-05-30T06:30:39.690Z,1.45
2019-05-30T06:33:09.445Z,1.50
2019-05-30T06:35:39.254Z,1.20
2019-05-30T06:38:09.771Z,1.60
2019-05-30T06:40:40.324Z,1.30
2019-05-30T06:43:10.362Z,1.37
2019-05-30T06:45:40.192Z,1.60
2019-05-30T06:48:10.681Z,1.62
2019-05-30T06:50:41.053Z,2.62
2019-05-30T06:53:10.950Z,2.42
2019-05-30T06:55:40.732Z,2.20
2019-05-30T06:58:10.544Z,1.45
2019-05-30T07:00:40.299Z,1.87
2019-05-30T07:03:10.180Z,2.30
2019-05-30T07:05:40.879Z,2.50
2019-05-30T07:08:10.792Z,2.40
2019-05-30T07:10:40.644Z,2.70
2019-05-30T07:13:10.453Z,2.30
2019-05-30T07:15:40.285Z,2.02
2019-05-30T07:18:10.039Z,2.52
2019-05-30T07:20:39.832Z,3.02
2019-05-30T07:23:09.684Z,3.70
2019-05-30T07:25:40.115Z,3.25
2019-05-30T07:28:09.961Z,3.15
2019-05-30T07:30:39.792Z,3.10
2019-05-30T07:33:09.584Z,3.08
2019-05-30T07:35:39.427Z,1.90
2019-05-30T07:38:09.204Z,3.27
2019-05-30T07:40:39.034Z,3.20
2019-05-30T07:43:08.898Z,2.77
2019-05-30T07:45:38.785Z,2.30
2019-05-30T07:48:08.629Z,1.98
2019-05-30T07:50:38.779Z,3.02
2019-05-30T07:53:08.823Z,2.65
2019-05-30T07:55:39.389Z,2.52
2019-05-30T07:58:09.310Z,2.30
2019-05-30T08:00:39.753Z,2.40
2019-05-30T08:03:09.629Z,2.80
2019-05-30T08:05:39.429Z,3.40
2019-05-30T08:08:09.287Z,3.02
2019-05-30T08:10:39.082Z,2.65
2019-05-30T08:13:08.949Z,2.70
2019-05-30T08:15:43.945Z,3.08
2019-05-30T08:18:10.174Z,2.80
2019-05-30T08:20:40.108Z,3.47
2019-05-30T08:23:10.169Z,2.95
2019-05-30T08:25:40.038Z,3.05
2019-05-30T08:28:10.458Z,3.00
2019-05-30T08:30:40.992Z,3.08
2019-05-30T08:33:11.556Z,3.20
2019-05-30T08:35:49.452Z,3.30
2019-05-30T08:38:15.656Z,3.12
2019-05-30T08:40:45.604Z,2.70
2019-05-30T08:43:15.409Z,2.60
2019-05-30T08:45:45.935Z,3.22
2019-05-30T08:48:16.793Z,2.87
2019-05-30T08:50:47.331Z,4.17
2019-05-30T08:53:18.992Z,3.10
2019-05-30T08:55:49.492Z,2.92
2019-05-30T08:58:20.160Z,2.62
2019-05-30T09:00:50.854Z,2.40
2019-05-30T09:03:21.502Z,2.50
2019-05-30T09:06:02.607Z,2.37
2019-05-30T09:08:24.408Z,2.00
2019-05-30T09:10:54.369Z,2.30
2019-05-30T09:13:24.910Z,3.58
2019-05-30T09:15:55.521Z,1.82
2019-05-30T09:18:25.448Z,1.77
2019-05-30T09:20:59.870Z,2.12
2019-05-30T09:23:30.488Z,1.80
2019-05-30T09:26:01.189Z,2.00
2019-05-30T09:28:31.169Z,2.17
2019-05-30T09:31:01.853Z,2.30
2019-05-30T09:33:32.538Z,1.98
2019-05-30T09:36:12.590Z,1.80
2019-05-30T09:38:35.431Z,2.02
2019-05-30T09:41:05.484Z,2.10
2019-05-30T09:43:36.044Z,2.20
2019-05-30T09:46:05.914Z,2.37
2019-05-30T09:48:35.691Z,2.72
2019-05-30T09:51:05.827Z,2.87
2019-05-30T09:53:35.629Z,3.33
2019-05-30T09:56:06.246Z,2.20
2019-05-30T09:58:36.910Z,2.50
2019-05-30T10:01:07.555Z,2.33
2019-05-30T10:03:37.389Z,2.45
2019-05-30T10:06:07.914Z,2.65
2019-05-30T10:08:38.508Z,2.60
2019-05-30T10:11:09.105Z,2.47
2019-05-30T10:13:39.860Z,2.35
2019-05-30T10:16:11.792Z,2.00
2019-05-30T10:18:42.472Z,2.40
2019-05-30T10:21:13.586Z,1.92
2019-05-30T10:23:45.689Z,2.20
2019-05-30T10:26:16.716Z,1.62
2019-05-30T10:28:47.780Z,1.77
2019-05-30T10:31:19.839Z,1.75
2019-05-30T10:33:51.033Z,1.50
2019-05-30T10:36:21.921Z,1.67
2019-05-30T10:38:52.180Z,1.62
2019-05-30T10:41:22.876Z,1.60
2019-05-30T10:43:53.194Z,1.25
2019-05-30T10:46:23.072Z,1.70
2019-05-30T10:48:54.676Z,1.40
2019-05-30T10:51:25.584Z,1.57
2019-05-30T10:53:57.876Z,1.50
2019-05-30T10:56:27.677Z,1.50
2019-05-30T10:58:58.130Z,2.05
2019-05-30T11:01:28.026Z,1.45
2019-05-30T11:03:57.919Z,1.60
2019-05-30T11:06:34.773Z,1.50
2019-05-30T11:09:06.243Z,1.45
2019-05-30T11:11:36.121Z,1.20
2019-05-30T11:14:05.969Z,1.30
2019-05-30T11:16:36.258Z,1.25
2019-05-30T11:19:07.729Z,1.20
2019-05-30T11:21:37.827Z,1.35
2019-05-30T11:24:09.483Z,1.40
2019-05-30T11:26:40.076Z,1.42
2019-05-30T11:29:10.685Z,1.65
2019-05-30T11:31:42.394Z,1.55
2019-05-30T11:34:13.007Z,1.35
2019-05-30T11:36:42.955Z,1.40
2019-05-30T11:39:13.395Z,1.80
2019-05-30T11:41:44.116Z,2.02
2019-05-30T11:44:14.649Z,1.80
2019-05-30T11:46:45.179Z,1.47
2019-05-30T11:49:15.879Z,1.80
2019-05-30T11:51:46.431Z,1.85
2019-05-30T11:54:17.069Z,1.85
2019-05-30T11:56:47.699Z,1.50
2019-05-30T11:59:18.264Z,2.05
2019-05-30T12:01:50.165Z,1.55
2019-05-30T12:04:20.975Z,1.47
2019-05-30T12:06:53.006Z,1.70
2019-05-30T12:09:23.692Z,1.75
2019-05-30T12:11:55.179Z,1.92
2019-05-30T12:14:25.064Z,1.30
2019-05-30T12:16:55.716Z,1.50
2019-05-30T12:19:26.428Z,1.00
2019-05-30T12:21:57.685Z,1.00
2019-05-30T12:24:29.015Z,1.15
2019-05-30T12:27:00.400Z,1.17
2019-05-30T12:29:32.260Z,1.22
2019-05-30T12:32:03.470Z,1.15
2019-05-30T12:34:34.224Z,1.00
2019-05-30T12:37:06.249Z,1.00
2019-05-30T12:39:36.835Z,0.85
2019-05-30T12:42:07.814Z,0.93
2019-05-30T12:44:38.517Z,0.80
2019-05-30T12:47:09.149Z,0.90
2019-05-30T12:49:42.223Z,1.10
2019-05-30T12:52:13.404Z,0.80
2019-05-30T12:54:44.568Z,0.80
2019-05-30T12:57:15.166Z,0.95
2019-05-30T12:59:45.832Z,0.90
2019-05-30T13:02:17.733Z,0.98
2019-05-30T13:04:48.389Z,0.88
2019-05-30T13:07:19.025Z,0.75
2019-05-30T13:09:50.005Z,1.00
2019-05-30T13:12:19.881Z,0.82
2019-05-30T13:14:50.523Z,0.68
2019-05-30T13:17:23.340Z,0.68
2019-05-30T13:19:55.002Z,0.70
2019-05-30T13:22:25.595Z,0.80
2019-05-30T13:24:57.459Z,0.88
2019-05-30T13:27:28.199Z,0.90
2019-05-30T13:30:00.038Z,0.75
2019-05-30T13:32:30.642Z,0.80
2019-05-30T13:35:01.649Z,0.70
2019-05-30T13:37:32.260Z,0.82
2019-05-30T13:40:03.446Z,0.98
2019-05-30T13:42:36.687Z,0.70
2019-05-30T13:45:06.811Z,0.80
2019-05-30T13:47:38.203Z,1.00
2019-05-30T13:50:13.492Z,0.70
2019-05-30T13:52:43.551Z,0.90
2019-05-30T13:55:13.656Z,0.85
2019-05-30T13:57:43.549Z,0.78
2019-05-30T14:00:13.828Z,0.90
2019-05-30T14:02:43.875Z,1.00
2019-05-30T14:05:14.570Z,1.07
2019-05-30T14:07:45.234Z,1.30
2019-05-30T14:10:16.093Z,1.32
2019-05-30T14:12:46.716Z,1.30
2019-05-30T14:15:17.548Z,1.10
2019-05-30T14:17:49.740Z,0.90
2019-05-30T14:20:21.240Z,0.80
2019-05-30T14:22:52.191Z,0.90
2019-05-30T14:25:22.894Z,0.80
2019-05-30T14:27:53.939Z,0.98
2019-05-30T14:30:24.684Z,1.00
2019-05-30T14:32:55.293Z,0.70
2019-05-30T14:35:26.092Z,0.78
2019-05-30T14:37:56.672Z,1.00
2019-05-30T14:40:27.485Z,0.90
2019-05-30T14:42:58.632Z,0.90
2019-05-30T14:45:29.330Z,0.70
2019-05-30T14:48:00.342Z,5.45
2019-05-30T14:50:30.953Z,1.10
2019-05-30T14:53:01.594Z,1.00
2019-05-30T14:55:32.729Z,0.85
2019-05-30T14:58:03.295Z,1.02
2019-05-30T15:00:33.975Z,1.00
2019-05-30T15:03:08.710Z,0.93
2019-05-30T15:05:36.715Z,1.00
2019-05-30T15:08:08.371Z,1.30
2019-05-30T15:10:39.244Z,0.95
2019-05-30T15:13:09.934Z,1.22
2019-05-30T15:15:40.961Z,1.37
2019-05-30T15:18:11.529Z,1.00
2019-05-30T15:20:42.100Z,0.95
2019-05-30T15:23:13.726Z,0.90
2019-05-30T15:25:44.481Z,1.10
2019-05-30T15:28:16.188Z,1.10
2019-05-30T15:30:48.050Z,1.17
2019-05-30T15:33:18.644Z,0.82
2019-05-30T15:35:49.231Z,1.22
2019-05-30T15:38:19.799Z,1.20
2019-05-30T15:40:50.329Z,0.75
2019-05-30T15:43:20.976Z,0.70
2019-05-30T15:45:51.783Z,1.07
2019-05-30T15:48:22.407Z,0.80
2019-05-30T15:50:53.048Z,0.90
2019-05-30T15:53:24.631Z,0.80
2019-05-30T15:55:55.313Z,0.90
2019-05-30T15:58:26.489Z,0.80
2019-05-30T16:00:57.057Z,1.00
2019-05-30T16:03:27.726Z,0.62
2019-05-30T16:05:58.301Z,0.82
2019-05-30T16:08:29.359Z,0.70
2019-05-30T16:10:59.975Z,1.02
2019-05-30T16:13:30.647Z,0.90
2019-05-30T16:16:04.780Z,0.70
2019-05-30T16:18:35.386Z,0.90
2019-05-30T16:21:06.033Z,0.70
2019-05-30T16:23:36.728Z,0.70
2019-05-30T16:26:07.422Z,0.90
2019-05-30T16:28:49.766Z,0.70
2019-05-30T16:31:20.305Z,0.70
2019-05-30T16:33:51.032Z,1.00
2019-05-30T16:36:22.541Z,1.12
2019-05-30T16:38:53.363Z,1.02
2019-05-30T16:41:24.006Z,0.88
2019-05-30T16:43:54.682Z,0.70
2019-05-30T16:46:25.233Z,1.60
2019-05-30T16:48:55.864Z,0.90
2019-05-30T16:51:27.024Z,0.80
2019-05-30T16:53:58.148Z,0.68
2019-05-30T16:56:30.072Z,1.00
2019-05-30T16:59:02.214Z,0.90
2019-05-30T17:01:32.794Z,1.07
2019-05-30T17:04:03.533Z,0.80
2019-05-30T17:06:34.338Z,1.40
2019-05-30T17:09:06.536Z,1.00
2019-05-30T17:11:37.255Z,1.20
2019-05-30T17:14:07.266Z,1.10
2019-05-30T17:16:37.705Z,1.10
2019-05-30T17:19:07.635Z,1.02
2019-05-30T17:21:37.557Z,1.25
2019-05-30T17:24:07.337Z,0.90
2019-05-30T17:26:38.445Z,0.90
2019-05-30T17:29:10.583Z,1.10
2019-05-30T17:31:40.507Z,1.05
2019-05-30T17:34:10.409Z,1.10
2019-05-30T17:36:40.809Z,0.95
2019-05-30T17:39:10.784Z,1.10
2019-05-30T17:41:41.245Z,0.98
2019-05-30T17:44:11.637Z,1.20
2019-05-30T17:46:45.143Z,1.00
2019-05-30T17:49:15.985Z,1.12
2019-05-30T17:51:49.824Z,0.90
2019-05-30T17:54:19.765Z,1.12
2019-05-30T17:56:50.933Z,1.25
2019-05-30T17:59:22.333Z,1.40
2019-05-30T18:01:52.982Z,1.40
2019-05-30T18:04:24.479Z,1.10
2019-05-30T18:06:55.274Z,1.25
2019-05-30T18:09:27.223Z,1.10
2019-05-30T18:11:57.338Z,1.25
2019-05-30T18:14:27.316Z,1.50
2019-05-30T18:16:58.304Z,1.45
2019-05-30T18:19:29.442Z,1.20
2019-05-30T18:21:59.301Z,1.37
2019-05-30T18:24:29.644Z,1.30
2019-05-30T18:26:59.675Z,1.90
2019-05-30T18:29:30.199Z,1.57
2019-05-30T18:32:02.569Z,1.40
2019-05-30T18:34:33.990Z,1.40
2019-05-30T18:37:03.945Z,1.70
2019-05-30T18:39:33.824Z,1.60
2019-05-30T18:42:03.832Z,1.50
2019-05-30T18:44:34.430Z,1.45
2019-05-30T18:47:04.390Z,1.60
2019-05-30T18:49:34.274Z,1.72
2019-05-30T18:52:04.808Z,1.37
2019-05-30T18:54:34.671Z,1.40
2019-05-30T18:57:04.536Z,1.50
2019-05-30T18:59:35.508Z,1.75
2019-05-30T19:02:05.408Z,3.83
2019-05-30T19:04:35.868Z,2.00
2019-05-30T19:07:05.961Z,3.72
2019-05-30T19:09:39.993Z,3.98
2019-05-30T19:12:10.404Z,3.35
2019-05-30T19:14:41.417Z,3.20
2019-05-30T19:17:33.743Z,2.92
2019-05-30T19:20:05.972Z,4.15
2019-05-30T19:22:41.368Z,2.85
2019-05-30T19:25:10.754Z,3.77
2019-05-30T19:27:42.072Z,2.08
2019-05-30T19:30:14.137Z,2.25
2019-05-30T19:32:44.570Z,2.00
2019-05-30T19:35:14.851Z,2.50
2019-05-30T19:37:46.237Z,1.70
2019-05-30T19:40:19.921Z,1.77
2019-05-30T19:42:52.049Z,1.62
2019-05-30T19:45:21.900Z,1.60
2019-05-30T19:47:54.612Z,1.57
2019-05-30T19:50:24.508Z,1.92
2019-05-30T19:52:58.474Z,1.80
2019-05-30T19:55:31.075Z,2.02
2019-05-30T19:58:01.992Z,1.80
2019-05-30T20:00:32.372Z,2.15
2019-05-30T20:03:02.338Z,1.67
2019-05-30T20:05:34.449Z,1.70
2019-05-30T20:08:04.524Z,1.50
2019-05-30T20:10:35.054Z,1.52
2019-05-30T20:13:05.100Z,1.50
2019-05-30T20:15:35.475Z,1.30
2019-05-30T20:18:06.757Z,1.35
2019-05-30T20:20:51.698Z,1.85
2019-05-30T20:23:08.593Z,2.00
2019-05-30T20:25:44.030Z,1.85
2019-05-30T20:28:11.976Z,1.70
2019-05-30T20:30:41.899Z,1.65
2019-05-30T20:33:11.748Z,1.55
2019-05-30T20:35:43.421Z,1.42
2019-05-30T20:38:13.491Z,1.10
2019-05-30T20:40:44.829Z,1.65
2019-05-30T20:43:14.644Z,1.25
2019-05-30T20:45:48.061Z,1.10
2019-05-30T20:48:17.126Z,1.37
2019-05-30T20:50:47.481Z,1.42
2019-05-30T20:53:20.386Z,1.50
2019-05-30T20:55:49.408Z,1.50
2019-05-30T20:58:19.287Z,1.30
2019-05-30T21:00:49.756Z,1.40
2019-05-30T21:03:19.592Z,1.40
2019-05-30T21:05:49.551Z,1.47
2019-05-30T21:08:19.536Z,1.65
2019-05-30T21:10:49.568Z,1.50
2019-05-30T21:13:19.564Z,1.35
2019-05-30T21:15:54.590Z,1.80
2019-05-30T21:18:25.975Z,1.40
2019-05-30T21:20:55.892Z,1.40
2019-05-30T21:23:26.112Z,1.47
2019-05-30T21:25:57.073Z,1.57
2019-05-30T21:28:29.217Z,1.30
2019-05-30T21:31:00.790Z,1.50
2019-05-30T21:33:30.774Z,1.65
2019-05-30T21:36:00.577Z,1.70
2019-05-30T21:38:30.488Z,1.72
2019-05-30T21:41:00.376Z,1.70
2019-05-30T21:43:40.388Z,1.70
2019-05-30T21:46:13.121Z,1.80
2019-05-30T21:48:44.942Z,1.70
2019-05-30T21:51:16.428Z,1.60
2019-05-30T21:53:47.602Z,1.70
2019-05-30T21:56:17.588Z,1.90
2019-05-30T21:58:48.331Z,1.47
2019-05-30T22:01:37.632Z,1.98
2019-05-30T22:04:07.953Z,2.05
2019-05-30T22:06:37.817Z,1.77
2019-05-30T22:09:08.927Z,1.75
2019-05-30T22:11:38.784Z,1.57
2019-05-30T22:14:08.864Z,1.70
2019-05-30T22:16:39.073Z,1.65
2019-05-30T22:19:10.096Z,1.70
2019-05-30T22:21:39.946Z,1.70
2019-05-30T22:24:09.845Z,1.60
2019-05-30T22:26:39.857Z,1.90
2019-05-30T22:29:09.824Z,1.60
2019-05-30T22:31:39.705Z,1.85
2019-05-30T22:34:09.564Z,1.70
2019-05-30T22:36:40.472Z,1.70
2019-05-30T22:39:10.307Z,1.57
2019-05-30T22:41:40.208Z,2.12
2019-05-30T22:44:10.059Z,2.02
2019-05-30T22:46:40.892Z,1.87
2019-05-30T22:49:11.900Z,2.05
2019-05-30T22:51:41.795Z,1.65
2019-05-30T22:54:11.709Z,1.80
2019-05-30T22:56:41.573Z,1.75
2019-05-30T22:59:11.433Z,2.00
2019-05-30T23:01:42.212Z,1.67
2019-05-30T23:04:12.278Z,2.00
2019-05-30T23:06:42.396Z,1.70
2019-05-30T23:09:12.372Z,1.62
2019-05-30T23:11:42.560Z,1.65
2019-05-30T23:14:12.347Z,1.62
2019-05-30T23:16:42.220Z,1.50
2019-05-30T23:19:12.139Z,1.57
2019-05-30T23:21:44.201Z,1.70
2019-05-30T23:24:14.076Z,1.45
2019-05-30T23:26:43.898Z,1.62
2019-05-30T23:29:13.772Z,1.72
2019-05-30T23:31:56.201Z,1.60
2019-05-30T23:34:27.525Z,1.65
2019-05-30T23:36:58.659Z,1.57
2019-05-30T23:39:28.743Z,1.75
2019-05-30T23:41:59.326Z,1.20
2019-05-30T23:44:29.380Z,1.50
2019-05-30T23:47:00.362Z,1.40
2019-05-30T23:49:30.206Z,1.75
2019-05-30T23:52:00.429Z,1.50
2019-05-30T23:54:31.518Z,1.60
2019-05-30T23:57:01.357Z,1.50
2019-05-30T23:59:31.230Z,1.42
